METAR Data
IDs: Format: Raw Decoded Include TAF

Data at: 0711 UTC 30 Oct 2020

KHWD 300654Z AUTO 06003KT 10SM CLR 13/05 A3005 RMK AO2 SLP185 T01330050
No TAF found for KHWD

KRDD 300653Z AUTO 00000KT 10SM CLR 09/00 A3006 RMK AO2 SLP176 T00940000

KRDD 300540Z 3006/3106 VRB04KT P6SM SKC

KRTS 300655Z AUTO 32004KT 10SM CLR 00/M16 A3026 RMK AO2
No TAF found for KRTS